Time;durP1;ratioP1;P1;durP2;ratioP2;P2;SDS_P1;SDS_P2;PMS_P1;PMS_P2;Temp;Humidity;BMP_temperature;BMP_pressure;BME280_temperature;BME280_humidity;BME280_pressure;Samples;Min_cycle;Max_cycle;Signal;HPM_P1;HPM_P2
2022/11/06 00:02:23;;;;;;;11.48;5.60;;;;;;;8.92;88.46;101420.50;5056309;28;20029;-77
2022/11/06 00:04:49;;;;;;;9.88;5.50;;;;;;;8.92;88.32;101430.00;5058250;28;20152;-77
2022/11/06 00:07:14;;;;;;;11.45;5.82;;;;;;;8.91;89.03;101439.50;5056706;28;20033;-78
2022/11/06 00:09:39;;;;;;;10.10;5.05;;;;;;;8.90;88.30;101437.72;5058046;28;20033;-77
2022/11/06 00:12:05;;;;;;;11.70;5.75;;;;;;;8.87;88.22;101435.88;5057900;28;20080;-78
2022/11/06 00:14:30;;;;;;;11.30;5.15;;;;;;;8.86;88.32;101431.53;5058666;28;20132;-78
2022/11/06 00:16:55;;;;;;;9.80;5.10;;;;;;;8.83;88.53;101430.50;5064528;28;20289;-78
2022/11/06 00:19:21;;;;;;;11.98;5.22;;;;;;;8.81;88.50;101425.25;5063903;28;20088;-78
2022/11/06 00:21:46;;;;;;;10.63;4.50;;;;;;;8.79;88.57;101432.13;5063373;28;20044;-78
2022/11/06 00:24:14;;;;;;;9.57;4.53;;;;;;;8.78;88.64;101426.84;5063580;28;20025;-77
2022/11/06 00:26:39;;;;;;;10.30;4.80;;;;;;;8.77;88.69;101425.94;5062892;28;20032;-77
2022/11/06 00:29:05;;;;;;;9.73;4.68;;;;;;;8.76;88.76;101418.09;5062726;28;20053;-76
2022/11/06 00:31:34;;;;;;;9.57;4.57;;;;;;;8.75;88.85;101418.91;5064510;28;20080;-77
2022/11/06 00:34:00;;;;;;;7.20;4.43;;;;;;;8.74;88.77;101424.97;5063661;28;20043;-77
2022/11/06 00:36:29;;;;;;;8.85;4.50;;;;;;;8.72;88.97;101419.69;5063735;28;20024;-77
2022/11/06 00:38:55;;;;;;;8.95;4.10;;;;;;;8.67;88.97;101408.22;5062889;28;20553;-77
2022/11/06 00:41:22;;;;;;;9.25;4.50;;;;;;;8.65;89.02;101402.97;5062440;28;20031;-78
2022/11/06 00:43:52;;;;;;;9.68;4.57;;;;;;;8.65;89.18;101394.28;5063630;28;20017;-77
2022/11/06 00:46:18;;;;;;;9.73;4.78;;;;;;;8.65;89.01;101399.50;5063182;28;20323;-77
2022/11/06 00:48:43;;;;;;;6.88;4.28;;;;;;;8.64;89.20;101395.13;5059187;28;20044;-78
2022/11/06 00:51:29;;;;;;;9.30;4.40;;;;;;;8.60;89.12;101394.09;5062498;28;20104;-77
2022/11/06 00:53:56;;;;;;;9.75;4.25;;;;;;;8.60;89.09;101403.59;5062509;28;20021;-77
2022/11/06 00:56:22;;;;;;;6.88;3.92;;;;;;;8.59;89.29;101405.31;5057271;28;20049;-77
2022/11/06 00:58:48;;;;;;;7.78;3.95;;;;;;;8.58;89.55;101403.53;5060336;28;20095;-77
2022/11/06 01:01:29;;;;;;;10.98;4.20;;;;;;;8.57;89.14;101399.16;5060138;28;20060;-77
2022/11/06 01:04:00;;;;;;;10.68;4.15;;;;;;;8.58;89.14;101410.47;5058639;28;20033;-78
2022/11/06 01:06:28;;;;;;;9.57;3.88;;;;;;;8.55;89.20;101403.41;5063594;28;20035;-77
2022/11/06 01:08:54;;;;;;;9.95;4.38;;;;;;;8.52;89.33;101398.97;5063081;28;20117;-78
2022/11/06 01:11:31;;;;;;;8.38;4.25;;;;;;;8.52;89.71;101400.69;5059137;28;20059;-78
2022/11/06 01:13:58;;;;;;;10.10;3.95;;;;;;;8.51;89.42;101397.19;5061658;28;20036;-77
2022/11/06 01:16:24;;;;;;;10.05;3.92;;;;;;;8.50;89.52;101395.44;5063325;28;20051;-70
2022/11/06 01:18:51;;;;;;;9.55;4.05;;;;;;;8.50;89.42;101399.72;5063003;28;20061;-69
2022/11/06 01:21:19;;;;;;;6.78;3.92;;;;;;;8.47;89.60;101397.94;5062518;28;20048;-69
2022/11/06 01:23:46;;;;;;;9.30;3.67;;;;;;;8.47;89.58;101390.13;5062796;28;20093;-70
2022/11/06 01:26:13;;;;;;;11.43;4.15;;;;;;;8.46;89.66;101393.53;5062757;28;20210;-70
2022/11/06 01:28:39;;;;;;;6.25;3.72;;;;;;;8.45;89.66;101386.56;5061601;28;20031;-70
2022/11/06 01:31:14;;;;;;;9.88;3.75;;;;;;;8.46;89.72;101382.28;5077036;28;20152;-70
2022/11/06 01:33:40;;;;;;;9.05;3.60;;;;;;;8.45;90.24;101373.59;5062404;28;21040;-70
2022/11/06 01:36:09;;;;;;;7.60;3.53;;;;;;;8.44;90.12;101378.69;5063574;28;20027;-69
2022/11/06 01:38:34;;;;;;;7.43;3.43;;;;;;;8.46;90.05;101370.16;5061611;28;20103;-69
2022/11/06 01:41:00;;;;;;;6.93;3.30;;;;;;;8.46;90.03;101366.69;5062152;28;20314;-69
2022/11/06 01:43:45;;;;;;;9.73;3.75;;;;;;;8.47;89.96;101360.66;5062408;28;20291;-70
2022/11/06 01:46:11;;;;;;;8.65;3.65;;;;;;;8.48;89.94;101360.72;5061901;28;20091;-70
2022/11/06 01:48:38;;;;;;;8.48;3.90;;;;;;;8.49;89.96;101351.22;5062564;28;20028;-69
2022/11/06 01:51:05;;;;;;;7.80;3.33;;;;;;;8.51;90.17;101362.56;5058501;28;20187;-70
2022/11/06 01:53:31;;;;;;;10.15;3.92;;;;;;;8.52;90.01;101365.22;5077465;28;20027;-70
2022/11/06 01:55:59;;;;;;;8.35;3.70;;;;;;;8.56;90.07;101365.34;5061895;28;20048;-69
2022/11/06 01:58:29;;;;;;;8.77;3.22;;;;;;;8.59;89.86;101355.97;5061923;28;20041;-70
2022/11/06 02:00:54;;;;;;;11.43;3.30;;;;;;;8.62;89.61;101352.63;5060614;28;20029;-70
2022/11/06 02:03:19;;;;;;;9.05;3.67;;;;;;;8.63;89.78;101354.38;5061599;28;20067;-70
2022/11/06 02:05:46;;;;;;;6.68;3.30;;;;;;;8.64;89.75;101361.34;5062531;28;20031;-70
2022/11/06 02:08:14;;;;;;;7.93;3.13;;;;;;;8.66;89.57;101360.59;5063182;28;20024;-70
2022/11/06 02:10:40;;;;;;;10.63;3.63;;;;;;;8.67;89.44;101353.66;5062630;28;20088;-70
2022/11/06 02:13:38;;;;;;;9.90;3.30;;;;;;;8.69;89.53;101350.31;5060112;28;20053;-70
2022/11/06 02:16:20;;;;;;;8.55;3.28;;;;;;;8.71;89.52;101347.78;5067492;28;20031;-69
2022/11/06 02:19:23;;;;;;;11.75;3.70;;;;;;;8.72;89.62;101344.34;5061722;28;20281;-77
2022/11/06 02:22:17;;;;;;;8.57;3.65;;;;;;;8.75;89.38;101334.06;5061052;28;20033;-77
2022/11/06 02:24:58;;;;;;;5.85;3.10;;;;;;;8.77;89.24;101340.22;5057278;28;20194;-77
2022/11/06 02:27:26;;;;;;;10.43;3.50;;;;;;;8.76;89.40;101335.84;5055603;28;20033;-77
2022/11/06 02:30:09;;;;;;;10.03;3.23;;;;;;;8.78;89.31;101333.31;5058724;28;20028;-77
2022/11/06 02:32:43;;;;;;;7.70;3.50;;;;;;;8.79;89.15;101329.88;5058914;28;20017;-77
2022/11/06 02:35:31;;;;;;;6.88;3.20;;;;;;;8.78;89.01;101334.19;5060756;28;20048;-77
2022/11/06 02:38:14;;;;;;;9.38;3.38;;;;;;;8.78;88.96;101331.59;5061458;28;20037;-77
2022/11/06 02:40:48;;;;;;;8.85;3.35;;;;;;;8.77;88.94;101322.03;5062145;28;20120;-76
2022/11/06 02:43:15;;;;;;;7.55;2.92;;;;;;;8.75;89.05;101313.28;5060445;28;20017;-77
2022/11/06 02:45:49;;;;;;;7.40;3.08;;;;;;;8.74;89.13;101314.09;5061646;28;20029;-77
2022/11/06 02:48:18;;;;;;;11.27;3.40;;;;;;;8.74;89.12;101321.03;5059240;28;20025;-77
2022/11/06 02:50:47;;;;;;;9.20;3.00;;;;;;;8.73;89.28;101325.31;5054112;28;20025;-77
2022/11/06 02:53:17;;;;;;;7.43;2.95;;;;;;;8.74;89.25;101314.09;5055176;28;20037;-77
2022/11/06 02:55:42;;;;;;;;;;;;;;;8.78;88.82;101318.59;5054724;28;20036;-77
2022/11/06 02:58:13;;;;;;;9.50;3.42;;;;;;;8.77;89.10;101316.81;5069659;28;19908;-77
2022/11/06 03:00:43;;;;;;;7.68;3.03;;;;;;;8.75;89.18;101312.38;5054228;28;20142;-77
2022/11/06 03:03:19;;;;;;;9.27;3.10;;;;;;;8.74;89.19;101319.31;5053481;28;20272;-77
2022/11/06 03:06:16;;;;;;;9.82;2.88;;;;;;;8.74;89.43;101321.91;5054739;28;20053;-78
2022/11/06 03:08:49;;;;;;;9.52;3.15;;;;;;;8.73;89.64;101327.91;5055921;28;20033;-77
2022/11/06 03:11:28;;;;;;;9.10;3.30;;;;;;;8.74;89.47;101329.69;5061614;28;20041;-77
2022/11/06 03:14:12;;;;;;;7.45;2.97;;;;;;;8.74;89.71;101347.88;5061507;28;20068;-77
2022/11/06 03:16:48;;;;;;;9.45;3.20;;;;;;;8.76;89.73;101337.56;5061866;28;20048;-77
2022/11/06 03:19:35;;;;;;;7.95;2.85;;;;;;;8.78;89.81;101320.31;5064950;28;20049;-77
2022/11/06 03:22:11;;;;;;;9.43;2.90;;;;;;;8.79;89.97;101320.38;5064758;28;20033;-78
2022/11/06 03:24:57;;;;;;;7.72;3.30;;;;;;;8.79;89.53;101317.78;5062078;28;20029;-77
2022/11/06 03:27:31;;;;;;;8.70;3.40;;;;;;;8.79;89.65;101303.88;5064214;28;20071;-77
2022/11/06 03:30:08;;;;;;;7.47;3.10;;;;;;;8.80;89.50;101298.75;5064896;28;20045;-77
2022/11/06 03:32:56;;;;;;;7.35;3.08;;;;;;;8.81;89.59;101304.84;5054561;28;20021;-77
2022/11/06 03:35:25;;;;;;;8.98;3.20;;;;;;;8.78;89.41;101291.75;5063869;28;20075;-77
2022/11/06 03:37:59;;;;;;;8.77;3.28;;;;;;;8.76;89.50;101285.59;5080911;28;20021;-77
2022/11/06 03:40:28;;;;;;;7.18;3.15;;;;;;;8.74;89.67;101288.13;5061838;28;20037;-77
2022/11/06 03:42:58;;;;;;;8.68;2.83;;;;;;;8.74;89.75;101288.13;5064636;28;20090;-77
2022/11/06 03:45:26;;;;;;;8.10;3.08;;;;;;;8.72;89.80;101275.91;5064557;28;20079;-76
2022/11/06 03:48:18;;;;;;;7.65;3.25;;;;;;;8.70;89.84;101286.22;5064633;28;20021;-76
2022/11/06 03:51:00;;;;;;;9.15;3.25;;;;;;;8.71;90.14;101269.84;5063917;28;20342;-77
2022/11/06 03:53:31;;;;;;;10.65;3.15;;;;;;;8.71;90.22;101259.44;5064373;28;20028;-76
2022/11/06 03:56:04;;;;;;;9.07;3.63;;;;;;;8.72;90.16;101249.91;5064680;28;20032;-77
2022/11/06 03:58:36;;;;;;;9.40;2.92;;;;;;;8.73;90.42;101254.28;5063344;28;20322;-77
2022/11/06 04:01:04;;;;;;;11.10;3.20;;;;;;;8.74;90.35;101251.75;5063628;28;20341;-78
2022/11/06 04:03:46;;;;;;;8.80;3.00;;;;;;;8.75;90.64;101248.34;5062570;28;20307;-77
2022/11/06 04:06:18;;;;;;;7.97;3.08;;;;;;;8.77;90.28;101238.00;5062206;28;20071;-77
2022/11/06 04:14:21;;;;;;;10.68;3.25;;;;;;;8.77;90.53;101240.59;5061736;28;20079;-77
2022/11/06 04:16:52;;;;;;;7.95;3.30;;;;;;;8.78;90.35;101240.66;5063889;28;20037;-70
2022/11/06 04:19:20;;;;;;;7.15;2.95;;;;;;;8.78;90.22;101239.78;5063901;28;20029;-69
2022/11/06 04:21:52;;;;;;;9.00;3.00;;;;;;;8.79;90.54;101237.25;5062121;28;20025;-69
2022/11/06 04:27:35;;;;;;;6.75;3.50;;;;;;;8.80;90.61;101213.00;5064467;28;20096;-70
2022/11/06 04:30:07;;;;;;;8.02;3.30;;;;;;;8.81;90.82;101214.78;5062966;28;20025;-69
2022/11/06 04:33:13;;;;;;;8.68;3.50;;;;;;;8.82;90.76;101211.38;5060122;28;20032;-69
2022/11/06 04:36:04;;;;;;;7.55;3.13;;;;;;;8.82;90.70;101211.38;5062860;28;20090;-70
2022/11/06 04:38:52;;;;;;;7.32;3.35;;;;;;;8.82;90.67;101211.38;5053056;28;20129;-70
2022/11/06 04:41:33;;;;;;;10.27;3.45;;;;;;;8.81;90.76;101212.19;5063486;28;20017;-70
2022/11/06 04:44:03;;;;;;;8.02;3.38;;;;;;;8.79;90.83;101206.06;5063664;28;20055;-70
2022/11/06 04:46:38;;;;;;;8.90;3.15;;;;;;;8.79;90.95;101195.66;5064183;28;20047;-70
2022/11/06 04:49:05;;;;;;;9.55;3.45;;;;;;;8.80;91.04;101201.72;5062666;28;20181;-70
2022/11/06 04:51:34;;;;;;;10.45;3.97;;;;;;;8.77;91.11;101202.50;5063235;28;20263;-70
2022/11/06 04:54:01;;;;;;;6.68;3.10;;;;;;;8.77;91.04;101199.91;5062755;28;20092;-70
2022/11/06 04:56:32;;;;;;;8.20;3.42;;;;;;;8.77;91.22;101199.91;5063205;28;20035;-69
2022/11/06 04:58:57;;;;;;;10.07;3.38;;;;;;;8.76;91.45;101197.25;5061972;28;20272;-69
2022/11/06 05:01:23;;;;;;;6.13;3.00;;;;;;;8.75;91.39;101201.56;5062103;28;20031;-70
2022/11/06 05:03:48;;;;;;;8.98;3.35;;;;;;;8.74;91.51;101181.59;5077755;28;20111;-69
2022/11/06 05:06:13;;;;;;;7.75;3.33;;;;;;;8.74;91.59;101191.13;5063035;28;20032;-69
2022/11/06 05:08:39;;;;;;;9.48;3.28;;;;;;;8.72;91.77;101192.75;5062629;28;20025;-70
2022/11/06 05:11:05;;;;;;;7.88;3.30;;;;;;;8.72;91.69;101182.38;5062990;28;20324;-69
2022/11/06 05:13:30;;;;;;;7.60;3.30;;;;;;;8.70;91.78;101191.03;5062944;28;20286;-69
2022/11/06 05:15:56;;;;;;;9.02;3.05;;;;;;;8.70;91.83;101183.22;5062483;28;20028;-69
2022/11/06 05:18:22;;;;;;;6.18;3.22;;;;;;;8.70;91.82;101177.13;5063497;28;20051;-69
2022/11/06 05:20:47;;;;;;;6.13;3.03;;;;;;;8.68;92.03;101176.19;5062898;28;20267;-69
2022/11/06 05:23:14;;;;;;;7.70;3.35;;;;;;;8.69;92.16;101170.19;5062282;28;20024;-70
2022/11/06 05:25:40;;;;;;;10.70;3.55;;;;;;;8.68;92.20;101174.47;5062513;28;20035;-69
2022/11/06 05:28:07;;;;;;;7.78;3.10;;;;;;;8.69;92.28;101170.19;5063209;28;20017;-76
2022/11/06 05:30:35;;;;;;;9.32;3.55;;;;;;;8.70;92.26;101178.03;5060650;28;20024;-77
2022/11/06 05:33:00;;;;;;;9.35;3.78;;;;;;;8.69;92.25;101173.66;5063357;28;20210;-77
2022/11/06 05:35:25;;;;;;;10.10;3.63;;;;;;;8.69;92.11;101167.59;5062388;28;20035;-77
2022/11/06 05:37:58;;;;;;;9.25;3.38;;;;;;;8.69;92.17;101168.47;5061530;28;20294;-77
2022/11/06 05:40:23;;;;;;;7.88;3.90;;;;;;;8.68;92.22;101171.88;5058333;28;20031;-77
2022/11/06 05:42:48;;;;;;;8.52;3.53;;;;;;;8.68;92.24;101166.69;5062272;28;20147;-77
2022/11/06 05:45:13;;;;;;;7.47;3.47;;;;;;;8.70;92.46;101164.13;5071523;28;20037;-78
2022/11/06 05:47:40;;;;;;;11.43;3.50;;;;;;;8.71;92.20;101171.09;5051814;28;20032;-77
2022/11/06 05:50:07;;;;;;;8.65;3.08;;;;;;;8.71;92.13;101160.72;5045976;28;20251;-77
2022/11/06 05:52:34;;;;;;;7.80;3.47;;;;;;;8.72;92.33;101166.78;5051944;28;20087;-77
2022/11/06 05:54:59;;;;;;;8.57;3.28;;;;;;;8.73;92.35;101163.38;5050941;28;20038;-77
2022/11/06 05:57:24;;;;;;;8.35;3.47;;;;;;;8.72;92.31;101159.91;5051579;28;20103;-77
2022/11/06 05:59:50;;;;;;;11.57;3.30;;;;;;;8.71;92.19;101158.13;5051119;28;20238;-78
2022/11/06 06:02:15;;;;;;;7.35;3.20;;;;;;;8.72;92.10;101153.78;5048462;28;20036;-78
2022/11/06 06:04:40;;;;;;;7.30;2.92;;;;;;;8.70;92.13;101148.53;5066909;28;20021;-77
2022/11/06 06:07:05;;;;;;;8.48;3.13;;;;;;;8.69;92.16;101141.59;5051338;28;20035;-77
2022/11/06 06:09:31;;;;;;;7.30;3.00;;;;;;;8.68;92.35;101158.00;5051150;28;20141;-77
2022/11/06 06:11:56;;;;;;;6.35;3.08;;;;;;;8.69;92.27;101152.00;5052127;28;20048;-77
2022/11/06 06:14:21;;;;;;;7.20;3.30;;;;;;;8.68;92.36;101151.09;5066491;28;20040;-77
2022/11/06 06:16:47;;;;;;;9.23;3.50;;;;;;;8.68;92.28;101148.50;5052227;28;20025;-77
2022/11/06 06:19:12;;;;;;;6.05;3.25;;;;;;;8.68;92.36;101143.28;5050170;28;20075;-77
2022/11/06 06:21:38;;;;;;;7.93;3.60;;;;;;;8.69;92.19;101131.22;5054026;28;20104;-76
2022/11/06 06:24:04;;;;;;;7.07;3.10;;;;;;;8.70;91.90;101132.97;5050068;28;20037;-77
2022/11/06 06:26:30;;;;;;;7.80;3.45;;;;;;;8.71;92.20;101134.75;5051080;28;20092;-70
2022/11/06 06:28:55;;;;;;;8.45;3.47;;;;;;;8.72;91.95;101135.59;5066087;28;20086;-69
2022/11/06 06:31:21;;;;;;;8.60;3.00;;;;;;;8.73;91.75;101138.25;5052468;28;20079;-70
2022/11/06 06:33:46;;;;;;;6.97;3.22;;;;;;;8.75;91.88;101143.50;5051538;28;20279;-69
2022/11/06 06:36:11;;;;;;;11.35;3.10;;;;;;;8.74;91.58;101140.03;5052854;28;21214;-70
2022/11/06 06:38:37;;;;;;;8.10;2.92;;;;;;;8.75;92.08;101147.00;5050367;28;20104;-70
2022/11/06 06:41:03;;;;;;;7.38;2.83;;;;;;;8.75;91.66;101149.63;5052322;28;20028;-70
2022/11/06 06:43:29;;;;;;;8.15;3.00;;;;;;;8.76;91.85;101153.09;5053150;28;20287;-70
2022/11/06 06:45:59;;;;;;;9.00;3.15;;;;;;;8.77;91.75;101154.84;5060790;28;20044;-70
2022/11/06 06:48:24;;;;;;;8.52;3.13;;;;;;;8.78;91.63;101154.91;5061415;28;20244;-70
2022/11/06 06:50:50;;;;;;;7.70;3.08;;;;;;;8.80;91.33;101150.66;5055994;28;20045;-70
2022/11/06 06:53:15;;;;;;;8.77;2.95;;;;;;;8.79;91.46;101146.31;5057008;28;20052;-70
2022/11/06 06:55:41;;;;;;;6.60;3.00;;;;;;;8.80;91.42;101135.06;5055529;28;20108;-70
2022/11/06 06:58:06;;;;;;;8.48;3.20;;;;;;;8.81;91.39;101139.44;5059798;28;20025;-77
2022/11/06 07:00:31;;;;;;;7.28;3.30;;;;;;;8.80;91.46;101135.06;5054434;28;20572;-77
2022/11/06 07:02:57;;;;;;;6.10;2.92;;;;;;;8.81;91.52;101129.03;5055384;28;20175;-78
2022/11/06 07:05:22;;;;;;;9.70;3.00;;;;;;;8.85;91.65;101133.53;5057019;28;20251;-77
2022/11/06 07:07:48;;;;;;;6.78;3.13;;;;;;;8.86;91.51;101137.00;5055038;28;20029;-76
2022/11/06 07:10:13;;;;;;;8.73;4.47;;;;;;;8.91;91.98;101142.34;5053665;28;21608;-76
2022/11/06 07:12:38;;;;;;;7.63;3.45;;;;;;;8.95;91.46;101139.03;5070235;28;20033;-76
2022/11/06 07:15:04;;;;;;;8.52;3.10;;;;;;;8.99;91.29;101134.00;5054348;28;20032;-77
2022/11/06 07:17:30;;;;;;;7.70;2.70;;;;;;;9.03;91.15;101129.78;5054595;28;20116;-76
2022/11/06 07:19:55;;;;;;;9.45;2.80;;;;;;;9.08;91.32;101122.13;5054622;28;20025;-76
2022/11/06 07:22:20;;;;;;;6.50;2.63;;;;;;;9.10;91.01;101129.16;5057967;28;20032;-76
2022/11/06 07:24:46;;;;;;;7.60;3.10;;;;;;;9.13;91.28;101134.47;5059064;28;20025;-75
2022/11/06 07:27:11;;;;;;;7.57;3.85;;;;;;;9.16;90.93;101125.91;5057491;28;20029;-76
2022/11/06 07:29:36;;;;;;;9.60;2.90;;;;;;;9.20;90.79;101117.38;5057593;28;20211;-77
2022/11/06 07:32:01;;;;;;;8.73;3.20;;;;;;;9.25;90.48;101128.78;5057654;28;20036;-77
2022/11/06 07:34:27;;;;;;;7.18;3.35;;;;;;;9.28;90.71;101130.63;5061288;28;20127;-76
2022/11/06 07:36:52;;;;;;;7.72;2.83;;;;;;;9.32;90.45;101135.09;5064497;28;20056;-76
2022/11/06 07:39:17;;;;;;;8.43;3.40;;;;;;;9.35;90.53;101130.84;5062625;28;20275;-76
2022/11/06 07:41:43;;;;;;;6.70;3.25;;;;;;;9.37;90.04;101131.81;5060945;28;20028;-76
2022/11/06 07:44:08;;;;;;;8.30;3.33;;;;;;;9.42;89.80;101129.38;5060554;28;21987;-76
2022/11/06 07:46:33;;;;;;;8.27;2.80;;;;;;;9.45;90.25;101121.66;5063863;28;20029;-76
2022/11/06 07:48:59;;;;;;;6.97;3.10;;;;;;;9.49;90.33;101120.06;5061288;28;20029;-77
2022/11/06 07:51:24;;;;;;;11.35;3.58;;;;;;;9.52;90.09;101114.94;5060406;28;20295;-76
2022/11/06 07:53:49;;;;;;;7.82;3.00;;;;;;;9.55;89.69;101115.91;5059862;28;20036;-76
2022/11/06 07:56:15;;;;;;;7.75;3.10;;;;;;;9.58;89.57;101103.00;5060593;28;20025;-76
2022/11/06 07:58:40;;;;;;;5.22;2.38;;;;;;;9.61;89.89;101101.34;5058870;28;20045;-76
2022/11/06 08:01:10;;;;;;;10.23;2.70;;;;;;;9.61;89.22;101098.75;5060129;28;20258;-77
2022/11/06 08:03:36;;;;;;;8.48;2.95;;;;;;;9.63;89.31;101102.25;5060338;28;20033;-77
2022/11/06 08:06:04;;;;;;;5.13;2.50;;;;;;;9.64;89.03;101104.03;5060295;28;20021;-76
2022/11/06 08:08:30;;;;;;;7.78;2.90;;;;;;;9.65;89.23;101114.50;5058396;28;20043;-76
2022/11/06 08:10:59;;;;;;;8.35;3.05;;;;;;;9.66;89.02;101107.56;5059131;28;20036;-76
2022/11/06 08:13:25;;;;;;;11.88;3.20;;;;;;;9.68;88.68;101105.91;5059360;28;20099;-76
2022/11/06 08:15:50;;;;;;;6.10;2.65;;;;;;;9.70;89.10;101093.81;5059319;28;20033;-76
2022/11/06 08:18:15;;;;;;;7.13;3.00;;;;;;;9.72;89.19;101106.03;5059809;28;20048;-76
2022/11/06 08:20:41;;;;;;;7.00;2.70;;;;;;;9.74;89.32;101098.28;5060197;28;20096;-76
2022/11/06 08:23:09;;;;;;;5.35;2.83;;;;;;;9.76;88.57;101096.59;5059154;28;20033;-76
2022/11/06 08:25:34;;;;;;;8.85;2.65;;;;;;;9.77;88.55;101087.97;5058434;28;20124;-76
2022/11/06 08:28:01;;;;;;;7.68;2.80;;;;;;;9.79;88.58;101086.31;5053532;28;20176;-76
2022/11/06 08:30:28;;;;;;;9.98;2.85;;;;;;;9.80;88.57;101088.06;5058615;28;20094;-76
2022/11/06 08:32:54;;;;;;;6.95;2.67;;;;;;;9.82;88.05;101089.00;5057459;28;20044;-77
2022/11/06 08:35:20;;;;;;;8.05;2.72;;;;;;;9.83;88.43;101082.94;5057698;28;20103;-76
2022/11/06 08:37:45;;;;;;;7.55;3.00;;;;;;;9.86;88.31;101077.84;5060359;28;20028;-76
2022/11/06 08:40:11;;;;;;;7.97;2.70;;;;;;;9.89;88.17;101077.94;5060378;28;20032;-76
2022/11/06 08:42:36;;;;;;;6.13;2.50;;;;;;;9.95;88.28;101076.34;5058282;28;20071;-76
2022/11/06 08:45:02;;;;;;;7.53;2.67;;;;;;;9.99;87.65;101073.00;5058487;28;20276;-76
2022/11/06 08:47:27;;;;;;;7.25;2.47;;;;;;;10.02;88.01;101066.19;5058288;28;20033;-76
2022/11/06 08:49:54;;;;;;;7.85;2.55;;;;;;;10.07;87.29;101058.50;5058008;28;20344;-76
2022/11/06 08:52:20;;;;;;;8.50;2.85;;;;;;;10.11;87.27;101062.97;5057177;28;20029;-76
2022/11/06 08:54:45;;;;;;;4.80;2.35;;;;;;;10.16;87.10;101056.16;5056555;28;20099;-76
2022/11/06 08:57:10;;;;;;;6.97;2.60;;;;;;;10.20;86.92;101057.13;5059558;28;20025;-76
2022/11/06 08:59:35;;;;;;;7.97;2.50;;;;;;;10.26;86.57;101057.28;5059981;28;20036;-75
2022/11/06 09:02:01;;;;;;;6.95;2.60;;;;;;;10.30;86.23;101048.75;5055989;28;20021;-76
2022/11/06 09:04:27;;;;;;;7.63;2.55;;;;;;;10.35;86.15;101054.97;5049556;28;20017;-76
2022/11/06 09:06:52;;;;;;;8.75;2.75;;;;;;;10.40;86.14;101047.31;5058336;28;20293;-76
2022/11/06 09:09:17;;;;;;;7.50;2.40;;;;;;;10.43;85.28;101035.25;5058937;28;20016;-76
2022/11/06 09:11:43;;;;;;;8.85;2.80;;;;;;;10.48;85.59;101034.47;5052816;28;20029;-76
2022/11/06 09:14:08;;;;;;;7.28;2.40;;;;;;;10.52;85.47;101028.53;5060531;28;20020;-76
2022/11/06 09:16:33;;;;;;;7.32;2.38;;;;;;;10.55;86.10;101034.69;5054045;28;20017;-76
2022/11/06 09:18:58;;;;;;;6.30;2.25;;;;;;;10.56;84.77;101020.81;5056614;28;20165;-76
2022/11/06 09:21:24;;;;;;;4.35;2.30;;;;;;;10.63;85.23;101026.19;5053790;28;20028;-76
2022/11/06 09:23:50;;;;;;;4.80;1.85;;;;;;;10.66;85.11;101015.84;5056044;28;20289;-76
2022/11/06 09:26:15;;;;;;;9.90;2.75;;;;;;;10.69;84.63;101011.59;5060029;28;20039;-76
2022/11/06 09:28:41;;;;;;;6.88;2.45;;;;;;;10.74;85.60;101003.91;5061310;28;20017;-76
2022/11/06 09:31:07;;;;;;;7.07;2.13;;;;;;;10.78;84.04;100996.19;5061570;28;20304;-75
2022/11/06 09:33:32;;;;;;;4.60;2.20;;;;;;;10.86;84.78;100990.28;5060206;28;20301;-76
2022/11/06 09:35:58;;;;;;;6.15;2.40;;;;;;;10.95;84.17;100988.78;5060724;28;20061;-76
2022/11/06 09:38:23;;;;;;;6.72;2.22;;;;;;;11.00;83.36;100985.41;5062656;28;20039;-69
2022/11/06 09:40:53;;;;;;;8.30;2.20;;;;;;;11.01;83.35;100987.16;5063106;28;20028;-70
2022/11/06 09:43:40;;;;;;;7.53;2.15;;;;;;;11.03;83.58;100995.91;5065474;28;20017;-70
2022/11/06 09:46:21;;;;;;;6.07;2.10;;;;;;;11.01;82.76;100993.28;5059941;28;20047;-70
2022/11/06 09:48:52;;;;;;;5.00;2.10;;;;;;;11.04;83.35;100992.47;5061654;28;20039;-70
2022/11/06 09:51:30;;;;;;;5.63;2.13;;;;;;;11.09;82.79;100980.41;5062667;28;20021;-70
2022/11/06 09:54:04;;;;;;;6.32;2.40;;;;;;;11.12;82.79;100990.91;5060080;28;20135;-70
2022/11/06 09:56:33;;;;;;;7.35;2.33;;;;;;;11.17;81.46;100998.88;5060188;28;20082;-70
2022/11/06 09:59:03;;;;;;;7.30;2.30;;;;;;;11.15;81.37;100983.16;5058996;28;20029;-70
2022/11/06 10:01:34;;;;;;;;;;;;;;;11.19;82.78;100989.34;5078121;28;20025;-70
2022/11/06 10:04:02;;;;;;;5.43;2.10;;;;;;;11.18;81.83;100988.47;5059422;28;20301;-70
2022/11/06 10:06:28;;;;;;;6.15;2.20;;;;;;;11.21;81.72;100979.81;5062228;28;20167;-70
2022/11/06 10:09:04;;;;;;;8.10;2.20;;;;;;;11.25;82.36;100968.59;5062454;28;20041;-70
2022/11/06 10:11:57;;;;;;;6.72;2.25;;;;;;;11.33;81.46;100977.50;5060600;28;20021;-69
2022/11/06 10:14:49;;;;;;;7.07;2.20;;;;;;;11.45;82.23;100969.94;5059000;28;20108;-69
2022/11/06 10:17:39;;;;;;;6.93;2.20;;;;;;;11.56;80.91;100971.91;5059285;28;20322;-70
2022/11/06 10:20:33;;;;;;;7.70;2.05;;;;;;;11.64;80.60;100971.22;5054665;28;20071;-69
2022/11/06 10:23:09;;;;;;;7.28;2.00;;;;;;;11.64;79.35;100966.00;5069665;28;20207;-70
2022/11/06 10:25:59;;;;;;;6.32;2.10;;;;;;;11.60;79.95;100960.66;5056590;28;20037;-70
2022/11/06 10:28:41;;;;;;;5.90;1.98;;;;;;;11.55;78.90;100963.19;5056047;28;20033;-69
2022/11/06 10:31:34;;;;;;;5.25;2.00;;;;;;;11.47;79.78;100950.00;5056749;28;20017;-69
2022/11/06 10:34:06;;;;;;;7.43;2.20;;;;;;;11.45;80.29;100959.50;5055584;28;20211;-70
2022/11/06 10:36:55;;;;;;;6.85;2.28;;;;;;;11.43;80.56;100957.72;5056357;28;20024;-75
2022/11/06 10:39:28;;;;;;;8.93;2.78;;;;;;;11.42;80.47;100955.94;5054602;28;20268;-77
2022/11/06 10:42:11;;;;;;;8.50;2.47;;;;;;;11.41;80.16;100949.88;5053844;28;20078;-78
2022/11/06 10:44:40;;;;;;;11.27;2.30;;;;;;;11.41;79.27;100936.81;5056404;28;20090;-76
2022/11/06 10:47:17;;;;;;;5.80;1.73;;;;;;;11.43;79.14;100939.47;5055261;28;20291;-76
2022/11/06 10:49:50;;;;;;;6.80;2.47;;;;;;;11.46;78.31;100934.31;5059760;28;20096;-76
2022/11/06 10:52:31;;;;;;;6.43;2.17;;;;;;;11.47;79.34;100925.59;5052240;28;20037;-76
2022/11/06 10:55:25;;;;;;;7.15;2.58;;;;;;;11.49;79.06;100914.34;5054202;28;20037;-77
2022/11/06 10:57:58;;;;;;;7.55;1.95;;;;;;;11.52;80.02;100895.28;5055999;28;20055;-77
2022/11/06 11:00:24;;;;;;;8.45;2.60;;;;;;;11.56;78.50;100904.06;5051873;28;20025;-76
2022/11/06 11:03:01;;;;;;;8.15;2.50;;;;;;;11.58;79.57;100898.00;5056064;28;20183;-76
2022/11/06 11:05:40;;;;;;;6.38;2.10;;;;;;;11.63;79.84;100896.38;5067311;28;20043;-77
2022/11/06 11:08:06;;;;;;;7.43;2.40;;;;;;;11.65;77.78;100889.44;5055105;28;20033;-76
2022/11/06 11:10:35;;;;;;;6.38;2.45;;;;;;;11.66;79.06;100890.34;5054861;28;20024;-76
2022/11/06 11:13:04;;;;;;;8.48;2.63;;;;;;;11.69;78.15;100889.50;5051687;28;20255;-76
2022/11/06 11:15:43;;;;;;;7.35;2.33;;;;;;;11.67;77.49;100881.66;5050161;28;20032;-76
2022/11/06 11:18:11;;;;;;;;;;;;;;;11.69;78.95;100879.97;5047023;28;20131;-75
2022/11/06 11:20:39;;;;;;;8.13;2.40;;;;;;;11.62;77.11;100884.16;5051848;28;19950;-77
2022/11/06 11:23:06;;;;;;;8.27;2.33;;;;;;;11.59;77.58;100883.25;5046123;28;20039;-76
2022/11/06 11:25:32;;;;;;;6.32;2.28;;;;;;;11.57;77.48;100874.50;5049648;28;20082;-77
2022/11/06 11:27:58;;;;;;;5.10;2.05;;;;;;;11.56;77.19;100872.75;5047958;28;20108;-76
2022/11/06 11:30:25;;;;;;;8.68;3.22;;;;;;;11.53;77.02;100864.84;5048087;28;20029;-77
2022/11/06 11:32:51;;;;;;;9.15;2.25;;;;;;;11.51;76.88;100854.38;5052595;28;20219;-77
2022/11/06 11:35:20;;;;;;;8.18;1.95;;;;;;;11.53;76.85;100855.28;5055541;28;20095;-77
2022/11/06 11:37:47;;;;;;;5.57;2.20;;;;;;;11.54;76.73;100854.41;5059189;28;20061;-76
2022/11/06 11:40:35;;;;;;;7.15;2.20;;;;;;;11.51;76.88;100851.75;5072114;28;20028;-77
2022/11/06 11:43:22;;;;;;;6.78;2.20;;;;;;;11.49;76.73;100840.44;5055921;28;20087;-76
2022/11/06 11:46:09;;;;;;;5.90;2.10;;;;;;;11.46;76.96;100846.44;5053053;28;20032;-76
2022/11/06 11:48:41;;;;;;;8.23;2.40;;;;;;;11.42;77.26;100842.03;5049487;28;20281;-77
2022/11/06 11:51:18;;;;;;;5.63;2.10;;;;;;;11.40;76.46;100841.13;5053333;28;20040;-77
2022/11/06 11:53:44;;;;;;;6.13;2.55;;;;;;;11.38;76.19;100844.53;5054494;28;20028;-77
2022/11/06 11:56:15;;;;;;;8.15;2.10;;;;;;;11.37;76.62;100841.06;5069155;28;20024;-77